Time;durP1;ratioP1;P1;durP2;ratioP2;P2;SDS_P1;SDS_P2;PMS_P1;PMS_P2;Temp;Humidity;BMP_temperature;BMP_pressure;BME280_temperature;BME280_humidity;BME280_pressure;Samples;Min_cycle;Max_cycle;Signal;HPM_P1;HPM_P2
2022/11/15 00:00:47;;;;;;;30.75;19.13;;;7.20;99.90;;;;;;5114079;27;20035;-50
2022/11/15 00:03:20;;;;;;;32.38;20.08;;;7.30;99.90;;;;;;5113236;27;20027;-47
2022/11/15 00:05:46;;;;;;;32.83;18.88;;;7.20;99.90;;;;;;5113579;27;20055;-46
2022/11/15 00:08:12;;;;;;;30.45;19.42;;;7.20;99.90;;;;;;5112777;27;20035;-46
2022/11/15 00:10:38;;;;;;;31.55;18.92;;;7.30;99.90;;;;;;5113229;27;20034;-48
2022/11/15 00:13:12;;;;;;;31.13;18.50;;;7.50;99.90;;;;;;5112167;28;20508;-48
2022/11/15 00:15:40;;;;;;;28.50;17.42;;;7.70;99.90;;;;;;5112186;27;20040;-46
2022/11/15 00:18:11;;;;;;;31.58;19.08;;;7.40;99.90;;;;;;5094300;28;20167;-48
2022/11/15 00:20:37;;;;;;;33.78;17.42;;;7.30;99.90;;;;;;5112059;28;20038;-47
2022/11/15 00:23:06;;;;;;;31.67;18.83;;;7.10;99.90;;;;;;5111902;28;20036;-47
2022/11/15 00:25:32;;;;;;;32.67;18.73;;;7.10;99.90;;;;;;5112028;28;20390;-47
2022/11/15 00:27:59;;;;;;;33.67;19.10;;;7.00;99.90;;;;;;5114200;27;20027;-46
2022/11/15 00:30:25;;;;;;;30.35;18.15;;;7.20;99.90;;;;;;5095017;28;20074;-47
2022/11/15 00:32:51;;;;;;;32.45;18.83;;;7.10;99.90;;;;;;5094276;28;20042;-46
2022/11/15 00:35:18;;;;;;;38.85;19.42;;;7.10;99.90;;;;;;5113853;27;20191;-47
2022/11/15 00:37:44;;;;;;;33.95;18.45;;;7.40;99.90;;;;;;5101648;28;20114;-49
2022/11/15 00:40:12;;;;;;;29.38;17.45;;;7.20;99.90;;;;;;5105102;27;20118;-49
2022/11/15 00:42:38;;;;;;;31.95;17.83;;;7.20;99.90;;;;;;5084867;28;20502;-46
2022/11/15 00:45:04;;;;;;;33.83;18.13;;;7.20;99.90;;;;;;5102841;28;20039;-48
2022/11/15 00:47:30;;;;;;;31.33;18.25;;;7.00;99.90;;;;;;5102124;28;20023;-48
2022/11/15 00:49:55;;;;;;;32.15;17.77;;;6.90;99.90;;;;;;5102876;27;20604;-47
2022/11/15 00:52:21;;;;;;;31.80;18.40;;;6.90;99.90;;;;;;5102486;27;20724;-46
2022/11/15 00:54:47;;;;;;;29.45;17.45;;;7.10;99.90;;;;;;5102135;28;20032;-47
2022/11/15 00:57:12;;;;;;;31.35;17.00;;;7.00;99.90;;;;;;5083884;28;20490;-47
2022/11/15 00:59:38;;;;;;;34.63;19.02;;;7.30;99.90;;;;;;5083809;28;20039;-49
2022/11/15 01:02:04;;;;;;;34.17;18.25;;;7.10;99.90;;;;;;5102508;28;20040;-46
2022/11/15 01:04:29;;;;;;;31.70;17.70;;;7.50;99.90;;;;;;5083465;28;20146;-48
2022/11/15 01:06:55;;;;;;;32.25;18.05;;;7.20;99.90;;;;;;5102358;27;20478;-49
2022/11/15 01:09:20;;;;;;;33.10;18.38;;;7.30;99.90;;;;;;5101261;28;20032;-47
2022/11/15 01:11:46;;;;;;;35.08;19.50;;;7.00;99.90;;;;;;5101332;28;20474;-51
2022/11/15 01:14:12;;;;;;;38.47;19.25;;;7.30;99.90;;;;;;5082174;28;20028;-47
2022/11/15 01:16:37;;;;;;;35.13;18.90;;;7.10;99.90;;;;;;5100694;28;20039;-48
2022/11/15 01:19:03;;;;;;;35.30;19.48;;;7.30;99.90;;;;;;5084044;28;20122;-46
2022/11/15 01:21:29;;;;;;;33.03;19.42;;;7.40;99.90;;;;;;5102119;27;20081;-47
2022/11/15 01:23:56;;;;;;;38.20;19.33;;;7.20;99.90;;;;;;5100996;28;20435;-48
2022/11/15 01:26:23;;;;;;;36.75;20.65;;;7.10;99.90;;;;;;5107912;28;20031;-46
2022/11/15 01:28:49;;;;;;;43.35;20.60;;;7.20;99.90;;;;;;5109543;28;20038;-46
2022/11/15 01:31:17;;;;;;;40.05;20.63;;;7.50;99.90;;;;;;5109323;28;20130;-47
2022/11/15 01:33:44;;;;;;;39.17;18.63;;;7.40;99.90;;;;;;5110617;28;20044;-47
2022/11/15 01:36:24;;;;;;;37.22;19.90;;;7.30;99.90;;;;;;5091654;28;20046;-48
2022/11/15 01:38:57;;;;;;;36.15;19.85;;;7.10;99.90;;;;;;5111512;28;20229;-46
2022/11/15 01:41:26;;;;;;;38.67;20.57;;;7.20;99.90;;;;;;5111247;28;20132;-47
2022/11/15 01:44:33;;;;;;;37.08;20.65;;;7.30;99.90;;;;;;5111400;28;20063;-48
2022/11/15 01:47:00;;;;;;;37.30;19.63;;;7.30;99.90;;;;;;5088914;28;20062;-50
2022/11/15 01:49:28;;;;;;;36.75;18.70;;;7.10;99.90;;;;;;5109787;28;20038;-47
2022/11/15 01:51:54;;;;;;;41.45;21.52;;;7.60;99.90;;;;;;5111145;28;20071;-48
2022/11/15 01:54:22;;;;;;;36.20;20.73;;;7.40;99.90;;;;;;5109183;28;20054;-47
2022/11/15 01:56:55;;;;;;;39.17;20.23;;;7.30;99.90;;;;;;5075980;28;20114;-46
2022/11/15 01:59:22;;;;;;;46.45;22.20;;;7.30;99.90;;;;;;5110067;28;20040;-46
2022/11/15 02:01:48;;;;;;;39.55;20.45;;;7.30;99.90;;;;;;5111766;28;20036;-47
2022/11/15 02:04:20;;;;;;;43.17;22.00;;;7.50;99.90;;;;;;5094652;28;20147;-46
2022/11/15 02:06:48;;;;;;;39.50;20.05;;;8.30;99.90;;;;;;5111643;28;20107;-47
2022/11/15 02:09:14;;;;;;;45.53;21.25;;;7.70;99.90;;;;;;5112554;28;20035;-48
2022/11/15 02:11:40;;;;;;;44.85;21.38;;;7.30;99.90;;;;;;5111468;28;20071;-48
2022/11/15 02:14:08;;;;;;;47.40;20.92;;;7.80;99.90;;;;;;5111542;28;20386;-49
2022/11/15 02:17:05;;;;;;;45.30;21.98;;;7.60;99.90;;;;;;5113463;27;20067;-49
2022/11/15 02:20:05;;;;;;;46.53;21.05;;;7.60;99.90;;;;;;5095826;28;20478;-49
2022/11/15 02:23:03;;;;;;;52.33;22.45;;;7.60;99.90;;;;;;5095644;28;20035;-48
2022/11/15 02:25:56;;;;;;;51.88;22.60;;;7.50;99.90;;;;;;5114797;27;20438;-49
2022/11/15 02:28:37;;;;;;;51.65;22.75;;;7.40;99.90;;;;;;5114869;27;20042;-49
2022/11/15 02:31:13;;;;;;;51.33;22.50;;;7.80;99.90;;;;;;5114408;27;20046;-51
2022/11/15 02:33:46;;;;;;;53.22;23.00;;;7.70;99.90;;;;;;5114652;28;20554;-47
2022/11/15 02:36:18;;;;;;;50.50;23.70;;;7.70;99.90;;;;;;5113985;28;20035;-46
2022/11/15 02:39:03;;;;;;;55.55;26.10;;;7.80;99.90;;;;;;5116744;27;20043;-48
2022/11/15 02:41:53;;;;;;;53.85;23.55;;;7.80;99.90;;;;;;5114858;27;20057;-47
2022/11/15 02:44:30;;;;;;;49.33;23.05;;;7.70;99.90;;;;;;5114766;27;20027;-48
2022/11/15 02:47:13;;;;;;;58.28;24.10;;;7.90;99.90;;;;;;5115705;27;20110;-47
2022/11/15 02:49:50;;;;;;;51.78;23.92;;;7.60;99.90;;;;;;5114528;27;20027;-46
2022/11/15 02:52:21;;;;;;;54.47;24.55;;;7.90;99.90;;;;;;5114508;27;20423;-46
2022/11/15 02:54:59;;;;;;;51.03;23.80;;;7.90;99.90;;;;;;5114180;27;20092;-46
2022/11/15 02:57:52;;;;;;;48.78;24.60;;;8.10;99.90;;;;;;5113547;27;20036;-48
2022/11/15 03:00:19;;;;;;;53.38;24.15;;;7.70;99.90;;;;;;5114569;27;20176;-46
2022/11/15 03:03:32;;;;;;;53.30;26.33;;;8.10;99.90;;;;;;5113698;28;20041;-47
2022/11/15 03:06:07;;;;;;;51.83;25.00;;;7.70;99.90;;;;;;5078312;28;20123;-48
2022/11/15 03:08:36;;;;;;;;;;;7.80;99.90;;;;;;5113999;27;20043;-48
2022/11/15 03:11:18;;;;;;;50.45;23.02;;;8.50;99.90;;;;;;5113372;28;19919;-48
2022/11/15 03:14:10;;;;;;;54.08;24.75;;;7.90;99.90;;;;;;5095052;28;20118;-48
2022/11/15 03:16:42;;;;;;;48.85;23.50;;;8.20;99.90;;;;;;5113817;27;20038;-46
2022/11/15 03:19:25;;;;;;;55.17;25.70;;;8.10;99.90;;;;;;5080010;27;20040;-47
2022/11/15 03:21:54;;;;;;;53.10;26.92;;;7.80;99.90;;;;;;5114338;27;20447;-46
2022/11/15 03:24:23;;;;;;;56.67;28.52;;;8.40;99.90;;;;;;5111631;28;20039;-46
2022/11/15 03:26:50;;;;;;;51.45;27.58;;;8.20;99.90;;;;;;5114524;27;20080;-49
2022/11/15 03:29:31;;;;;;;55.35;28.55;;;8.00;99.90;;;;;;5113419;27;20046;-48
2022/11/15 03:32:23;;;;;;;57.58;27.83;;;8.10;99.90;;;;;;5113671;27;20038;-50
2022/11/15 03:35:10;;;;;;;60.85;31.30;;;8.50;99.90;;;;;;5106731;27;20051;-47
2022/11/15 03:37:59;;;;;;;62.15;28.77;;;8.30;99.90;;;;;;5113043;27;20040;-46
2022/11/15 03:40:33;;;;;;;62.55;31.38;;;8.30;99.90;;;;;;5113430;27;20055;-51
2022/11/15 03:43:34;;;;;;;71.15;32.72;;;8.30;99.90;;;;;;5112734;27;20128;-46
2022/11/15 03:46:04;;;;;;;68.78;31.52;;;8.10;99.90;;;;;;5109313;27;20527;-46
2022/11/15 03:49:16;;;;;;;69.80;33.60;;;8.20;99.90;;;;;;5112609;28;20043;-46
2022/11/15 03:51:42;;;;;;;77.07;32.45;;;8.80;99.90;;;;;;5113283;27;20040;-46
2022/11/15 03:54:08;;;;;;;83.45;35.17;;;8.50;99.90;;;;;;5114747;27;20394;-46
2022/11/15 03:56:34;;;;;;;83.65;35.70;;;8.50;99.90;;;;;;5113631;27;20038;-48
2022/11/15 03:59:00;;;;;;;80.55;35.67;;;8.30;99.90;;;;;;5113043;27;20508;-47
2022/11/15 04:01:25;;;;;;;85.43;36.85;;;8.60;99.90;;;;;;5113293;27;20043;-47
2022/11/15 04:03:51;;;;;;;78.65;34.65;;;9.00;99.90;;;;;;5094947;27;20157;-47
2022/11/15 04:06:17;;;;;;;83.63;35.75;;;8.40;99.90;;;;;;5111596;28;20119;-46
2022/11/15 04:08:42;;;;;;;97.35;38.33;;;8.60;99.90;;;;;;5113052;27;20601;-47
2022/11/15 04:11:08;;;;;;;90.18;35.08;;;8.50;99.90;;;;;;5111657;27;20059;-47
2022/11/15 04:13:33;;;;;;;86.75;38.33;;;8.90;99.90;;;;;;5111777;28;20123;-46
2022/11/15 04:15:59;;;;;;;83.28;37.38;;;8.80;99.90;;;;;;5112590;27;20083;-49
2022/11/15 04:18:25;;;;;;;74.32;35.75;;;8.90;99.90;;;;;;5111647;28;20187;-51
2022/11/15 04:26:21;;;;;;;88.07;39.08;;;8.90;99.90;;;;;;5103912;27;20119;-46
2022/11/15 04:31:31;;;;;;;82.93;37.53;;;9.30;99.90;;;;;;5102466;28;20051;-48
2022/11/15 04:33:57;;;;;;;96.57;40.08;;;9.40;99.90;;;;;;5102585;27;20043;-46
2022/11/15 04:39:08;;;;;;;82.95;37.08;;;8.80;99.90;;;;;;5101979;27;20035;-47
2022/11/15 04:41:33;;;;;;;102.75;41.67;;;9.30;99.90;;;;;;5102951;28;20043;-47
2022/11/15 04:43:59;;;;;;;93.28;40.75;;;10.30;99.90;;;;;;5083646;28;20106;-45
2022/11/15 04:46:25;;;;;;;86.85;39.60;;;9.20;99.90;;;;;;5101437;28;20433;-49
2022/11/15 04:48:51;;;;;;;84.85;39.28;;;9.30;99.90;;;;;;5102650;28;20035;-48
2022/11/15 04:51:17;;;;;;;97.25;40.25;;;8.80;99.90;;;;;;5103152;27;20503;-47
2022/11/15 04:53:43;;;;;;;85.75;40.47;;;8.80;99.90;;;;;;5103604;27;20063;-46
2022/11/15 04:56:09;;;;;;;89.10;39.17;;;8.90;99.90;;;;;;5083882;28;20485;-47
2022/11/15 04:58:35;;;;;;;85.05;38.78;;;8.80;99.90;;;;;;5101677;27;20028;-48
2022/11/15 05:01:08;;;;;;;89.45;39.10;;;9.30;99.90;;;;;;5102449;28;20147;-47
2022/11/15 05:06:18;;;;;;;67.15;36.83;;;9.00;99.90;;;;;;5103234;28;20118;-46
2022/11/15 05:08:44;;;;;;;78.88;39.58;;;9.50;99.90;;;;;;5101659;28;20115;-49
2022/11/15 05:11:10;;;;;;;78.53;38.33;;;9.40;99.90;;;;;;5108791;28;20491;-47
2022/11/15 05:13:35;;;;;;;82.65;39.58;;;9.00;99.90;;;;;;5092134;28;20047;-48
2022/11/15 05:16:01;;;;;;;70.68;37.92;;;8.90;99.90;;;;;;5095738;28;20055;-47
2022/11/15 05:18:27;;;;;;;81.78;38.92;;;9.50;99.90;;;;;;5109200;28;20486;-48
2022/11/15 05:20:52;;;;;;;89.20;40.53;;;9.10;99.90;;;;;;5110140;28;20043;-46
2022/11/15 05:23:18;;;;;;;77.93;38.60;;;9.40;99.90;;;;;;5110823;28;20065;-48
2022/11/15 05:25:44;;;;;;;77.60;37.58;;;9.10;99.90;;;;;;5110968;28;20039;-47
2022/11/15 05:28:09;;;;;;;92.97;39.58;;;9.00;99.90;;;;;;5111846;27;20039;-49
2022/11/15 05:30:35;;;;;;;83.88;40.40;;;9.50;99.90;;;;;;5113373;27;20088;-47
2022/11/15 05:33:01;;;;;;;89.95;40.70;;;9.70;99.90;;;;;;5111984;28;20043;-47
2022/11/15 05:35:36;;;;;;;82.57;37.78;;;9.20;99.90;;;;;;5110566;28;20042;-50
2022/11/15 05:38:03;;;;;;;87.80;37.40;;;9.00;99.90;;;;;;5111144;28;20122;-46
2022/11/15 05:40:31;;;;;;;74.68;36.20;;;9.80;99.90;;;;;;5111675;28;20050;-47
2022/11/15 05:42:57;;;;;;;85.03;38.55;;;9.50;99.90;;;;;;5110489;28;20032;-51
2022/11/15 05:45:23;;;;;;;81.28;37.03;;;9.30;99.90;;;;;;5110162;28;20078;-49
2022/11/15 05:47:50;;;;;;;88.60;38.40;;;9.40;99.90;;;;;;5109992;28;20088;-50
2022/11/15 05:50:18;;;;;;;90.65;40.13;;;9.90;99.90;;;;;;5111101;28;20050;-49
2022/11/15 05:52:45;;;;;;;92.38;40.13;;;9.80;99.90;;;;;;5114980;27;20081;-48
2022/11/15 05:55:12;;;;;;;80.03;37.97;;;9.40;99.90;;;;;;5114744;27;20122;-47
2022/11/15 05:57:38;;;;;;;83.72;36.72;;;9.50;99.90;;;;;;5116113;27;20096;-49
2022/11/15 06:00:04;;;;;;;79.60;37.17;;;9.90;99.90;;;;;;5115996;27;20040;-46
2022/11/15 06:02:30;;;;;;;78.05;37.53;;;9.90;99.90;;;;;;5116519;27;20043;-46
2022/11/15 06:04:56;;;;;;;72.10;35.15;;;9.60;99.90;;;;;;5096807;28;20535;-49
2022/11/15 06:07:22;;;;;;;80.85;37.30;;;9.50;99.90;;;;;;5115934;27;20449;-48
2022/11/15 06:09:47;;;;;;;76.50;35.97;;;9.50;99.90;;;;;;5115283;27;20035;-46
2022/11/15 06:12:13;;;;;;;82.07;37.53;;;9.80;99.90;;;;;;5115481;27;20027;-48
2022/11/15 06:14:39;;;;;;;75.35;35.30;;;9.40;99.90;;;;;;5113553;27;20031;-49
2022/11/15 06:17:04;;;;;;;83.47;37.38;;;10.00;99.90;;;;;;5114950;28;20078;-47
2022/11/15 06:19:32;;;;;;;70.95;35.40;;;9.80;99.90;;;;;;5114778;27;20067;-50
2022/11/15 06:21:59;;;;;;;71.35;34.00;;;10.10;99.90;;;;;;5096229;28;20454;-46
2022/11/15 06:24:25;;;;;;;63.10;34.35;;;10.00;99.90;;;;;;5114137;28;20051;-47
2022/11/15 06:26:51;;;;;;;71.68;37.10;;;10.20;99.90;;;;;;5113817;27;20446;-49
2022/11/15 06:29:16;;;;;;;66.00;34.78;;;10.10;99.90;;;;;;5114231;28;20047;-46
2022/11/15 06:31:42;;;;;;;74.78;35.65;;;10.00;99.90;;;;;;5114127;28;20032;-48
2022/11/15 06:34:08;;;;;;;67.18;35.00;;;10.00;99.90;;;;;;5115322;27;20092;-47
2022/11/15 06:36:37;;;;;;;65.10;33.13;;;10.00;99.90;;;;;;5115074;27;20039;-48
2022/11/15 06:39:03;;;;;;;66.53;34.15;;;10.00;99.90;;;;;;5113627;28;20390;-47
2022/11/15 06:41:29;;;;;;;70.10;35.55;;;9.60;99.90;;;;;;5113502;28;20103;-47
2022/11/15 06:43:56;;;;;;;66.60;34.55;;;9.60;99.90;;;;;;5114246;27;20497;-47
2022/11/15 06:46:21;;;;;;;65.20;33.67;;;9.90;99.90;;;;;;5077679;28;20490;-47
2022/11/15 06:48:49;;;;;;;72.03;35.75;;;10.10;99.90;;;;;;5114354;27;20046;-48
2022/11/15 06:51:14;;;;;;;69.50;36.53;;;9.60;99.90;;;;;;5113807;28;20067;-47
2022/11/15 06:53:40;;;;;;;61.75;34.10;;;10.20;99.90;;;;;;5113648;27;20140;-50
2022/11/15 06:56:07;;;;;;;60.70;33.08;;;10.20;99.90;;;;;;5114778;27;20368;-47
2022/11/15 06:58:33;;;;;;;61.75;32.60;;;10.00;99.90;;;;;;5114751;27;20471;-47
2022/11/15 07:01:01;;;;;;;64.10;34.45;;;9.70;99.90;;;;;;5115916;27;20038;-46
2022/11/15 07:03:26;;;;;;;57.10;31.67;;;9.60;99.90;;;;;;5093711;28;20031;-47
2022/11/15 07:05:56;;;;;;;66.68;35.78;;;10.10;99.90;;;;;;5112975;28;20048;-47
2022/11/15 07:08:23;;;;;;;59.08;33.90;;;9.90;99.90;;;;;;5113983;28;20426;-45
2022/11/15 07:10:49;;;;;;;60.85;34.22;;;10.00;99.90;;;;;;5113802;27;20042;-47
2022/11/15 07:13:14;;;;;;;57.28;32.53;;;9.90;99.90;;;;;;5113077;27;20040;-46
2022/11/15 07:15:40;;;;;;;59.45;33.30;;;10.30;99.90;;;;;;5113398;28;20047;-48
2022/11/15 07:18:06;;;;;;;58.42;32.88;;;10.40;99.90;;;;;;5112992;28;20054;-51
2022/11/15 07:20:31;;;;;;;56.08;33.60;;;10.40;99.90;;;;;;5114402;27;20036;-46
2022/11/15 07:23:05;;;;;;;54.80;31.88;;;10.20;99.90;;;;;;5115492;27;20501;-48
2022/11/15 07:25:30;;;;;;;55.38;32.50;;;9.80;99.90;;;;;;5114260;27;20061;-49
2022/11/15 07:27:58;;;;;;;57.90;31.52;;;10.10;99.90;;;;;;5112682;28;20035;-48
2022/11/15 07:30:24;;;;;;;62.33;33.67;;;10.40;99.90;;;;;;5094042;28;20044;-47
2022/11/15 07:32:58;;;;;;;57.78;30.80;;;10.20;99.90;;;;;;5078177;27;20047;-50
2022/11/15 07:35:25;;;;;;;57.58;32.33;;;10.30;99.90;;;;;;5111770;27;20060;-46
2022/11/15 07:37:56;;;;;;;57.30;32.38;;;9.80;99.90;;;;;;5113048;27;20110;-47
2022/11/15 07:40:22;;;;;;;55.33;30.98;;;10.10;99.90;;;;;;5113049;27;20048;-49
2022/11/15 07:42:55;;;;;;;53.63;30.85;;;10.30;99.90;;;;;;5112496;27;20434;-47
2022/11/15 07:45:22;;;;;;;53.97;31.42;;;9.90;99.90;;;;;;5112750;27;20040;-51
2022/11/15 07:47:49;;;;;;;58.80;33.58;;;10.30;99.90;;;;;;5112342;28;20160;-50
2022/11/15 07:50:15;;;;;;;54.30;31.45;;;10.10;99.90;;;;;;5115095;27;20490;-49
2022/11/15 07:52:41;;;;;;;58.75;33.05;;;10.00;99.90;;;;;;5112057;28;20110;-49
2022/11/15 07:55:07;;;;;;;59.00;31.83;;;10.00;99.90;;;;;;5094992;28;20177;-48
2022/11/15 07:57:33;;;;;;;60.38;33.45;;;10.10;99.90;;;;;;5113207;27;20047;-47
2022/11/15 07:59:58;;;;;;;59.67;33.60;;;9.90;99.90;;;;;;5113496;27;20035;-48
2022/11/15 08:02:24;;;;;;;58.83;34.28;;;10.00;99.90;;;;;;5113121;28;20122;-49
2022/11/15 08:04:50;;;;;;;59.88;35.00;;;10.40;99.90;;;;;;5111682;27;20181;-46
2022/11/15 08:07:15;;;;;;;59.72;33.20;;;10.40;99.90;;;;;;5111729;28;20051;-49
2022/11/15 08:09:41;;;;;;;58.83;32.47;;;10.60;99.90;;;;;;5101669;28;20036;-47
2022/11/15 08:12:07;;;;;;;60.78;33.97;;;10.10;99.90;;;;;;5103349;27;20071;-50
2022/11/15 08:14:32;;;;;;;57.53;32.13;;;10.20;99.90;;;;;;5102190;28;20044;-49
2022/11/15 08:16:58;;;;;;;58.15;33.38;;;10.10;99.90;;;;;;5103333;27;20476;-48
2022/11/15 08:19:24;;;;;;;57.55;33.83;;;10.70;99.90;;;;;;5083531;28;20131;-47
2022/11/15 08:21:49;;;;;;;61.25;34.20;;;10.50;99.90;;;;;;5104069;28;20402;-48
2022/11/15 08:24:15;;;;;;;59.42;32.17;;;10.20;99.90;;;;;;5103616;27;20039;-51
2022/11/15 08:26:41;;;;;;;60.00;33.58;;;10.30;99.90;;;;;;5103170;28;20047;-47
2022/11/15 08:29:10;;;;;;;59.22;33.10;;;10.20;99.90;;;;;;5102740;28;20042;-49
2022/11/15 08:31:36;;;;;;;52.42;30.70;;;10.30;99.90;;;;;;5084623;28;20036;-46
2022/11/15 08:34:06;;;;;;;60.53;32.72;;;10.70;99.90;;;;;;5103021;27;20043;-47
2022/11/15 08:36:31;;;;;;;56.83;34.80;;;10.60;99.90;;;;;;5101935;27;20035;-51
2022/11/15 08:38:57;;;;;;;53.95;33.13;;;10.10;99.90;;;;;;5102909;28;20085;-50
2022/11/15 08:41:30;;;;;;;60.55;33.22;;;10.20;99.90;;;;;;5102333;28;20513;-49
2022/11/15 08:43:56;;;;;;;58.65;33.90;;;10.90;99.90;;;;;;5102962;28;20039;-49
2022/11/15 08:46:22;;;;;;;60.20;35.13;;;10.70;99.90;;;;;;5102928;28;20432;-47
2022/11/15 08:48:48;;;;;;;55.20;31.55;;;10.80;99.90;;;;;;5102070;28;20039;-47
2022/11/15 08:51:13;;;;;;;58.38;32.90;;;10.80;99.90;;;;;;5102574;28;20040;-49
2022/11/15 08:53:39;;;;;;;57.72;33.75;;;10.30;99.90;;;;;;5083549;28;20588;-50
2022/11/15 08:56:13;;;;;;;52.35;31.75;;;10.50;99.90;;;;;;5111264;27;20040;-49
2022/11/15 08:58:39;;;;;;;51.20;33.00;;;11.00;99.90;;;;;;5110576;28;20035;-47
2022/11/15 09:01:05;;;;;;;53.85;32.25;;;10.50;99.90;;;;;;5110158;27;20039;-49
2022/11/15 09:03:31;;;;;;;56.38;33.72;;;10.60;99.90;;;;;;5109615;27;20424;-48
2022/11/15 09:05:58;;;;;;;52.95;33.22;;;11.20;99.90;;;;;;5110055;27;20044;-49
2022/11/15 09:08:25;;;;;;;53.15;32.03;;;11.20;99.90;;;;;;5111100;28;20048;-49
2022/11/15 09:10:51;;;;;;;52.22;33.30;;;10.60;99.90;;;;;;5111003;28;20398;-48
2022/11/15 09:13:17;;;;;;;50.30;31.42;;;11.10;99.90;;;;;;5094038;28;20044;-48
2022/11/15 09:15:43;;;;;;;52.42;32.85;;;11.10;99.90;;;;;;5093833;28;20062;-48
2022/11/15 09:18:08;;;;;;;52.53;32.97;;;10.80;99.90;;;;;;5095177;27;20057;-50
2022/11/15 09:20:34;;;;;;;53.53;31.50;;;11.00;99.90;;;;;;5110845;28;20565;-47
2022/11/15 09:23:04;;;;;;;49.75;29.65;;;10.70;99.90;;;;;;5111311;28;20403;-48
2022/11/15 09:25:30;;;;;;;50.25;30.88;;;10.70;99.90;;;;;;5075897;28;20040;-50
2022/11/15 09:27:56;;;;;;;48.75;31.90;;;11.00;99.90;;;;;;5110623;28;20047;-46
2022/11/15 09:30:23;;;;;;;48.10;30.30;;;10.90;99.90;;;;;;5111551;28;20071;-48
2022/11/15 09:32:49;;;;;;;43.33;30.83;;;10.90;99.90;;;;;;5110770;28;20054;-47
2022/11/15 09:35:15;;;;;;;49.38;30.25;;;10.70;99.90;;;;;;5110565;28;20036;-50
2022/11/15 09:37:40;;;;;;;45.85;30.98;;;10.90;99.90;;;;;;5092709;28;20398;-46
2022/11/15 09:40:15;;;;;;;47.15;28.55;;;11.20;99.90;;;;;;5092377;28;20386;-47
2022/11/15 09:42:55;;;;;;;43.65;28.52;;;10.90;99.90;;;;;;5092398;28;20386;-47
2022/11/15 09:45:45;;;;;;;38.78;26.98;;;11.30;99.90;;;;;;5110924;28;20039;-48
2022/11/15 09:48:25;;;;;;;40.53;27.23;;;11.00;99.90;;;;;;5108555;28;20036;-48
2022/11/15 09:50:58;;;;;;;43.85;26.15;;;11.20;99.90;;;;;;5113028;28;20043;-48
2022/11/15 09:53:56;;;;;;;38.53;26.83;;;10.80;99.90;;;;;;5092405;28;20071;-50
2022/11/15 09:56:26;;;;;;;38.72;26.05;;;11.30;99.90;;;;;;5111352;28;20032;-47
2022/11/15 09:59:22;;;;;;;38.83;30.27;;;10.90;99.90;;;;;;5111856;28;20125;-48
2022/11/15 10:01:57;;;;;;;35.95;23.48;;;11.40;99.90;;;;;;5111892;28;20092;-49
2022/11/15 10:04:25;;;;;;;32.92;24.15;;;11.40;99.90;;;;;;5111217;28;20047;-50
2022/11/15 10:07:15;;;;;;;33.35;23.90;;;11.10;99.90;;;;;;5111972;28;20054;-47
2022/11/15 10:09:58;;;;;;;34.13;23.10;;;11.20;99.90;;;;;;5111140;28;20124;-51
2022/11/15 10:12:25;;;;;;;30.27;22.00;;;11.00;99.90;;;;;;5110209;28;20035;-50
2022/11/15 10:15:01;;;;;;;34.13;26.88;;;11.10;99.90;;;;;;5109647;28;20032;-50
2022/11/15 10:17:30;;;;;;;33.13;21.13;;;11.40;99.90;;;;;;5111010;28;20486;-47
2022/11/15 10:20:21;;;;;;;30.65;22.48;;;11.60;99.90;;;;;;5110333;28;20075;-48
2022/11/15 10:23:01;;;;;;;29.42;24.88;;;11.10;99.90;;;;;;5108935;28;20036;-51
2022/11/15 10:25:34;;;;;;;25.58;19.02;;;11.40;99.90;;;;;;5110312;28;20080;-49
2022/11/15 10:28:16;;;;;;;25.85;18.92;;;11.70;99.90;;;;;;5111145;28;20036;-45
2022/11/15 10:30:51;;;;;;;25.10;18.05;;;11.50;99.90;;;;;;5094063;28;20059;-46
2022/11/15 10:33:29;;;;;;;23.42;18.55;;;11.70;99.90;;;;;;5111349;28;20035;-46
2022/11/15 10:36:13;;;;;;;23.90;16.90;;;11.20;99.90;;;;;;5092385;28;20498;-47
2022/11/15 10:38:48;;;;;;;24.70;16.20;;;11.60;99.90;;;;;;5095939;27;20398;-48
2022/11/15 10:41:15;;;;;;;25.70;16.50;;;11.70;99.90;;;;;;5114419;27;20050;-47
2022/11/15 10:43:41;;;;;;;20.75;14.77;;;11.60;99.90;;;;;;5114572;27;20375;-47
2022/11/15 10:46:21;;;;;;;20.20;14.52;;;11.40;99.90;;;;;;5113427;28;20406;-48
2022/11/15 10:48:47;;;;;;;21.40;14.20;;;11.60;99.90;;;;;;5114719;27;20079;-48
2022/11/15 10:51:28;;;;;;;16.92;12.55;;;11.70;99.90;;;;;;5096100;28;20074;-50
2022/11/15 10:53:56;;;;;;;19.85;13.23;;;11.50;99.90;;;;;;5113835;28;20470;-47
2022/11/15 10:56:24;;;;;;;14.25;11.25;;;11.50;99.90;;;;;;5113617;27;20082;-48
2022/11/15 10:58:55;;;;;;;17.42;11.25;;;11.70;99.90;;;;;;5113895;28;20072;-47
2022/11/15 11:01:31;;;;;;;17.00;11.85;;;11.90;99.90;;;;;;5114811;27;20043;-47
2022/11/15 11:04:01;;;;;;;17.48;11.35;;;12.30;99.90;;;;;;5114783;27;20425;-48
2022/11/15 11:06:27;;;;;;;13.52;10.93;;;12.20;99.90;;;;;;5114288;27;20048;-48
2022/11/15 11:08:58;;;;;;;13.65;9.50;;;12.20;99.90;;;;;;5113729;28;20111;-50
2022/11/15 11:11:43;;;;;;;17.25;9.50;;;12.40;99.90;;;;;;5095662;28;20043;-46
2022/11/15 11:14:32;;;;;;;15.60;9.10;;;12.40;99.90;;;;;;5094451;28;20036;-47
2022/11/15 11:17:17;;;;;;;13.88;9.77;;;12.60;99.90;;;;;;5114463;27;20051;-51
2022/11/15 11:19:51;;;;;;;10.93;8.43;;;12.70;99.90;;;;;;5112615;28;20138;-49
2022/11/15 11:22:23;;;;;;;12.40;8.73;;;12.50;99.90;;;;;;5113038;27;20039;-48
2022/11/15 11:25:31;;;;;;;11.50;8.27;;;12.40;99.90;;;;;;5113324;27;20529;-47
2022/11/15 11:28:18;;;;;;;13.05;8.23;;;12.30;99.90;;;;;;5083603;28;20035;-46
2022/11/15 11:31:25;;;;;;;12.60;8.10;;;12.20;99.90;;;;;;5112627;28;20734;-46
2022/11/15 11:34:11;;;;;;;14.13;7.22;;;12.20;99.90;;;;;;5088933;28;20036;-48
2022/11/15 11:36:52;;;;;;;11.32;6.65;;;12.60;99.90;;;;;;5104161;28;20040;-48
2022/11/15 11:39:44;;;;;;;11.85;6.60;;;12.70;99.90;;;;;;5112665;27;20036;-45
2022/11/15 11:42:48;;;;;;;10.25;6.82;;;12.70;99.90;;;;;;5113929;27;20066;-44
2022/11/15 11:45:13;;;;;;;15.05;8.30;;;12.80;99.90;;;;;;5112085;27;20131;-47
2022/11/15 11:47:46;;;;;;;10.18;6.50;;;12.80;99.90;;;;;;5113986;27;20123;-46
2022/11/15 11:50:19;;;;;;;8.65;6.22;;;12.90;99.90;;;;;;5112849;27;20046;-46
2022/11/15 11:52:55;;;;;;;10.95;6.13;;;12.80;99.90;;;;;;5113904;27;20032;-46
2022/11/15 11:55:37;;;;;;;10.32;5.97;;;13.10;99.90;;;;;;5102295;27;20371;-49
2022/11/15 11:58:19;;;;;;;7.28;5.10;;;13.30;99.90;;;;;;5102670;27;20027;-47
2022/11/15 12:01:35;;;;;;;6.72;5.43;;;13.40;99.90;;;;;;5103142;27;20611;-52
2022/11/15 12:04:05;;;;;;;7.45;4.68;;;13.30;99.90;;;;;;5041475;28;20041;-48
2022/11/15 12:06:42;;;;;;;8.00;5.30;;;13.20;99.90;;;;;;5040106;28;20043;-46
2022/11/15 12:09:20;;;;;;;8.25;4.90;;;13.30;99.90;;;;;;5080673;28;20065;-47
2022/11/15 12:11:56;;;;;;;7.22;5.05;;;13.20;99.90;;;;;;5102534;28;20065;-48
2022/11/15 12:14:28;;;;;;;8.68;5.00;;;13.10;99.90;;;;;;5102325;27;20111;-50
2022/11/15 12:16:54;;;;;;;7.93;5.03;;;12.90;99.90;;;;;;5101832;28;20035;-46
2022/11/15 12:19:20;;;;;;;9.18;4.88;;;12.80;99.90;;;;;;5083900;28;20050;-46
2022/11/15 12:22:26;;;;;;;7.93;5.38;;;12.80;99.90;;;;;;5101544;28;20417;-49
2022/11/15 12:24:58;;;;;;;7.93;4.50;;;12.80;99.90;;;;;;5102873;28;20031;-45
2022/11/15 12:27:38;;;;;;;7.18;4.20;;;12.70;99.90;;;;;;5102868;27;20119;-46
2022/11/15 12:30:19;;;;;;;8.25;4.43;;;12.70;99.90;;;;;;5102644;28;20035;-46
2022/11/15 12:32:57;;;;;;;6.85;4.15;;;12.90;99.90;;;;;;5102461;27;20039;-46
2022/11/15 12:35:35;;;;;;;6.72;3.60;;;13.00;99.90;;;;;;5101715;28;20034;-45
2022/11/15 12:38:01;;;;;;;6.53;3.63;;;13.00;99.90;;;;;;5102906;27;20039;-47
2022/11/15 12:40:30;;;;;;;4.70;3.13;;;13.10;99.90;;;;;;5110098;28;20085;-49
2022/11/15 12:43:00;;;;;;;5.60;3.15;;;13.10;99.90;;;;;;5110529;27;20047;-47
2022/11/15 12:45:36;;;;;;;6.57;3.35;;;13.20;99.90;;;;;;5109229;28;20039;-45
2022/11/15 12:48:17;;;;;;;6.82;3.00;;;13.30;99.90;;;;;;5111732;27;20071;-47
2022/11/15 12:50:55;;;;;;;7.55;3.05;;;13.40;99.90;;;;;;5111052;28;20043;-49
2022/11/15 12:53:26;;;;;;;4.78;2.72;;;13.50;99.90;;;;;;5110470;27;20040;-45
2022/11/15 12:56:15;;;;;;;4.63;2.72;;;13.60;99.90;;;;;;5111434;28;20509;-47
2022/11/15 12:58:41;;;;;;;5.20;2.65;;;13.60;99.90;;;;;;5107934;27;20069;-48
2022/11/15 13:01:08;;;;;;;5.13;2.67;;;13.80;99.90;;;;;;5109882;27;20040;-50
2022/11/15 13:03:34;;;;;;;5.35;2.85;;;13.80;99.90;;;;;;5112554;27;20046;-45
2022/11/15 13:06:03;;;;;;;7.93;2.42;;;13.80;99.90;;;;;;5093448;27;20083;-51
2022/11/15 13:08:47;;;;;;;4.20;1.90;;;13.80;99.90;;;;;;5111931;27;20122;-49
2022/11/15 13:11:46;;;;;;;5.35;2.10;;;13.90;99.90;;;;;;5111789;27;20039;-47